createdAt,value
2022-08-22T00:01:30.369Z,99655.20
2022-08-22T00:02:44.326Z,99680.60
2022-08-22T00:02:47.663Z,99693.00
2022-08-22T00:02:49.197Z,99682.52
2022-08-22T00:03:01.581Z,99680.39
2022-08-22T00:03:07.476Z,99684.20
2022-08-22T00:03:15.861Z,99666.58
2022-08-22T00:03:16.084Z,99655.20
2022-08-22T00:04:14.280Z,99653.75
2022-08-22T00:05:27.584Z,99653.75
2022-08-22T00:06:42.145Z,99651.27
2022-08-22T00:08:05.365Z,99650.87
2022-08-22T00:09:22.909Z,99651.69
2022-08-22T00:10:35.200Z,99648.38
2022-08-22T00:11:51.303Z,99648.38
2022-08-22T00:13:05.099Z,99650.04
2022-08-22T00:14:27.239Z,99655.94
2022-08-22T00:15:46.250Z,99148.40
2022-08-22T00:17:26.782Z,99650.87
2022-08-22T00:18:36.352Z,99650.87
2022-08-22T00:19:56.694Z,99650.04
2022-08-22T00:21:12.844Z,99655.48
2022-08-22T00:22:38.134Z,99657.59
2022-08-22T00:23:59.821Z,99653.22
2022-08-22T00:25:26.073Z,99647.57
2022-08-22T00:26:45.496Z,99654.30
2022-08-22T00:28:15.753Z,99654.30
2022-08-22T00:29:29.695Z,99650.75
2022-08-22T00:30:39.885Z,99648.02
2022-08-22T00:31:49.436Z,99651.78
2022-08-22T00:33:02.313Z,99647.41
2022-08-22T00:34:18.236Z,99649.67
2022-08-22T00:35:44.965Z,99653.47
2022-08-22T00:36:52.672Z,99653.47
2022-08-22T00:38:17.487Z,99651.78
2022-08-22T00:39:24.456Z,99646.12
2022-08-22T00:40:52.053Z,99649.92
2022-08-22T00:42:31.803Z,99651.36
2022-08-22T00:43:53.444Z,99651.36
2022-08-22T00:45:12.141Z,99651.36
2022-08-22T00:46:53.337Z,99649.30
2022-08-22T00:48:17.917Z,99649.30
2022-08-22T00:49:30.429Z,99646.20
2022-08-22T00:50:57.949Z,99653.75
2022-08-22T00:52:19.630Z,99653.14
2022-08-22T00:53:53.627Z,99646.86
2022-08-22T00:55:15.373Z,99646.86
2022-08-22T00:56:29.561Z,99659.23
2022-08-22T00:57:55.165Z,99657.59
2022-08-22T00:59:23.036Z,99657.59
2022-08-22T01:00:29.282Z,99665.37
2022-08-22T01:01:40.881Z,99665.37
2022-08-22T01:03:22.741Z,99663.69
2022-08-22T01:04:29.441Z,99665.83
2022-08-22T01:05:54.130Z,99665.83
2022-08-22T01:07:15.816Z,99667.48
2022-08-22T01:08:25.507Z,99663.10
2022-08-22T01:09:51.780Z,99663.69
2022-08-22T01:11:14.947Z,99663.69
2022-08-22T01:12:27.472Z,99664.14
2022-08-22T01:13:37.626Z,99659.97
2022-08-22T01:15:01.945Z,99659.97
2022-08-22T01:16:28.618Z,99659.14
2022-08-22T01:17:47.066Z,99659.14
2022-08-22T01:18:59.776Z,99669.83
2022-08-22T01:20:12.335Z,99665.20
2022-08-22T01:21:38.518Z,99670.65
2022-08-22T01:23:02.979Z,99673.37
2022-08-22T01:24:09.955Z,99667.92
2022-08-22T01:25:42.428Z,99667.92
2022-08-22T01:27:22.690Z,99667.31
2022-08-22T01:28:53.508Z,99666.69
2022-08-22T01:30:08.990Z,99666.69
2022-08-22T01:31:39.942Z,99664.03
2022-08-22T01:33:03.025Z,99664.03
2022-08-22T01:34:27.748Z,99664.23
2022-08-22T01:35:46.635Z,99664.69
2022-08-22T01:36:56.523Z,99664.69
2022-08-22T01:38:23.382Z,99672.85
2022-08-22T01:39:47.832Z,99671.19
2022-08-22T01:41:12.548Z,99670.12
2022-08-22T01:42:37.420Z,99671.19
2022-08-22T01:44:09.956Z,99663.68
2022-08-22T01:45:25.345Z,99663.68
2022-08-22T01:46:44.577Z,99658.23
2022-08-22T01:47:53.612Z,99658.89
2022-08-22T01:49:10.477Z,99658.89
2022-08-22T01:50:23.413Z,99664.00
2022-08-22T01:51:41.806Z,99670.27
2022-08-22T01:52:54.666Z,99670.27
2022-08-22T01:54:04.648Z,99672.76
2022-08-22T01:55:33.088Z,99676.57
2022-08-22T01:56:43.565Z,99674.70
2022-08-22T01:57:53.621Z,99674.70
2022-08-22T01:59:03.510Z,99681.19
2022-08-22T02:00:10.742Z,99678.46
2022-08-22T02:01:35.528Z,99677.64
2022-08-22T02:03:03.529Z,99677.84
2022-08-22T02:04:13.143Z,99677.84
2022-08-22T02:05:26.150Z,99682.06
2022-08-22T02:06:40.754Z,99679.16
2022-08-22T02:08:11.171Z,99680.43
2022-08-22T02:09:42.126Z,99680.43
2022-08-22T02:11:08.039Z,99680.48
2022-08-22T02:12:43.187Z,99683.61
2022-08-22T02:13:55.688Z,99677.54
2022-08-22T02:15:20.735Z,99681.10
2022-08-22T02:16:41.120Z,99681.10
2022-08-22T02:18:09.177Z,99675.07
2022-08-22T02:19:20.747Z,99675.07
2022-08-22T02:20:28.344Z,99676.97
2022-08-22T02:23:55.978Z,99638.23
2022-08-22T02:25:04.313Z,99638.23
2022-08-22T02:26:19.068Z,99672.65
2022-08-22T02:27:43.022Z,99676.00
2022-08-22T02:28:57.196Z,99672.65
2022-08-22T02:30:13.509Z,99674.11
2022-08-22T02:31:20.477Z,99681.84
2022-08-22T02:32:30.196Z,99681.84
2022-08-22T02:33:37.197Z,99677.45
2022-08-22T02:35:00.598Z,99679.34
2022-08-22T02:36:23.852Z,99669.73
2022-08-22T02:37:42.706Z,99679.36
2022-08-22T02:39:10.128Z,99679.36
2022-08-22T02:40:36.560Z,99683.56
2022-08-22T02:42:01.550Z,99674.58
2022-08-22T02:43:26.866Z,99684.59
2022-08-22T02:44:33.902Z,99684.59
2022-08-22T02:45:43.777Z,99677.94
2022-08-22T02:47:20.284Z,99681.08
2022-08-22T02:48:27.794Z,99677.50
2022-08-22T02:49:43.869Z,99677.50
2022-08-22T02:51:03.314Z,99684.40
2022-08-22T02:52:16.425Z,99682.51
2022-08-22T02:53:32.155Z,99684.40
2022-08-22T02:54:58.445Z,99684.40
2022-08-22T02:56:11.311Z,99693.58
2022-08-22T02:57:34.560Z,99686.88
2022-08-22T02:59:00.002Z,99686.88
2022-08-22T03:00:06.755Z,99693.58
2022-08-22T03:01:18.500Z,99697.98
2022-08-22T03:02:41.224Z,99688.14
2022-08-22T03:03:47.172Z,99688.14
2022-08-22T03:04:57.064Z,99694.01
2022-08-22T03:06:05.879Z,99701.33
2022-08-22T03:07:33.438Z,99701.33
2022-08-22T03:08:44.140Z,99699.64
2022-08-22T03:10:04.137Z,99699.64
2022-08-22T03:11:26.035Z,99700.87
2022-08-22T03:12:44.766Z,99706.94
2022-08-22T03:14:18.430Z,99708.19
2022-08-22T03:15:49.694Z,99710.67
2022-08-22T03:17:15.216Z,99712.96
2022-08-22T03:18:27.895Z,99712.96
2022-08-22T03:19:46.345Z,99718.59
2022-08-22T03:21:26.930Z,99709.36
2022-08-22T03:22:57.688Z,99709.36
2022-08-22T03:24:16.377Z,99714.78
2022-08-22T03:25:35.315Z,99714.78
2022-08-22T03:26:55.427Z,99723.31
2022-08-22T03:28:05.116Z,99715.94
2022-08-22T03:29:28.696Z,99715.94
2022-08-22T03:30:36.275Z,99710.84
2022-08-22T03:31:46.207Z,99714.57
2022-08-22T03:33:09.534Z,99714.57
2022-08-22T03:34:16.665Z,99711.08
2022-08-22T03:35:28.757Z,99711.08
2022-08-22T03:36:35.069Z,99716.50
2022-08-22T03:37:42.461Z,99657.14
2022-08-22T03:39:14.946Z,99657.14
2022-08-22T03:40:35.897Z,99727.11
2022-08-22T03:41:51.741Z,99727.11
2022-08-22T03:43:16.819Z,99726.55
2022-08-22T03:44:23.776Z,99731.86
2022-08-22T03:45:48.670Z,99730.28
2022-08-22T03:47:17.933Z,99729.30
2022-08-22T03:48:45.653Z,99726.60
2022-08-22T03:51:32.009Z,99735.78
2022-08-22T03:52:49.816Z,99735.78
2022-08-22T03:53:59.454Z,99735.58
2022-08-22T03:55:15.114Z,99742.75
2022-08-22T03:56:48.533Z,99742.75
2022-08-22T03:58:27.315Z,99732.70
2022-08-22T03:59:47.692Z,99732.70
2022-08-22T04:01:01.711Z,99737.69
2022-08-22T04:02:31.538Z,99740.45
2022-08-22T04:03:38.335Z,99740.45
2022-08-22T04:04:50.944Z,99738.78
2022-08-22T04:06:22.918Z,99737.00
2022-08-22T04:07:32.096Z,99741.14
2022-08-22T04:09:08.316Z,99741.15
2022-08-22T04:10:32.058Z,99743.70
2022-08-22T04:11:41.485Z,99752.50
2022-08-22T04:12:57.134Z,99751.88
2022-08-22T04:14:38.546Z,99751.88
2022-08-22T04:16:01.556Z,99754.14
2022-08-22T04:17:30.722Z,99754.14
2022-08-22T04:18:53.914Z,99770.94
2022-08-22T04:20:22.519Z,99764.89
2022-08-22T04:21:48.767Z,99763.31
2022-08-22T04:23:10.572Z,99764.00
2022-08-22T04:24:32.345Z,99764.00
2022-08-22T04:25:39.321Z,99763.89
2022-08-22T04:26:52.141Z,99763.89
2022-08-22T04:28:08.029Z,99763.89
2022-08-22T04:29:32.937Z,99768.69
2022-08-22T04:30:49.136Z,99769.05
2022-08-22T04:32:00.494Z,99769.36
2022-08-22T04:33:24.009Z,99769.36
2022-08-22T04:34:30.996Z,99776.91
2022-08-22T04:35:37.975Z,99776.91
2022-08-22T04:36:47.906Z,99788.80
2022-08-22T04:37:57.770Z,99788.80
2022-08-22T04:39:15.057Z,99787.78
2022-08-22T04:40:31.108Z,99787.78
2022-08-22T04:41:43.756Z,99776.55
2022-08-22T04:43:07.132Z,99770.62
2022-08-22T04:44:17.172Z,99770.62
2022-08-22T04:45:24.162Z,99769.08
2022-08-22T04:46:40.714Z,99773.88
2022-08-22T04:47:56.863Z,99773.80
2022-08-22T04:49:09.707Z,99782.94
2022-08-22T04:50:34.836Z,99782.94
2022-08-22T04:51:44.675Z,99777.13
2022-08-22T04:53:06.621Z,99782.50
2022-08-22T04:54:36.872Z,99769.20
2022-08-22T04:55:55.999Z,99779.39
2022-08-22T04:57:18.174Z,99783.81
2022-08-22T04:58:33.701Z,99778.33
2022-08-22T04:59:39.084Z,99769.78
2022-08-22T05:00:58.004Z,99778.30
2022-08-22T05:02:04.893Z,99778.30
2022-08-22T05:03:11.950Z,99783.69
2022-08-22T05:04:21.557Z,99772.03
2022-08-22T05:05:30.151Z,99775.86
2022-08-22T05:06:37.210Z,99773.72
2022-08-22T05:07:44.186Z,99550.36
2022-08-22T05:08:53.948Z,99550.36
2022-08-22T05:10:11.621Z,99782.96
2022-08-22T05:11:12.616Z,99770.19
2022-08-22T05:12:22.418Z,99775.27
2022-08-22T05:13:38.111Z,99775.27
2022-08-22T05:14:49.345Z,99770.70
2022-08-22T05:15:56.357Z,99770.70
2022-08-22T05:17:02.067Z,99780.16
2022-08-22T05:18:09.066Z,99777.27
2022-08-22T05:19:29.619Z,99447.38
2022-08-22T05:20:30.512Z,99773.00
2022-08-22T05:21:37.522Z,99773.00
2022-08-22T05:22:44.496Z,99778.33
2022-08-22T05:23:53.994Z,99779.80
2022-08-22T05:25:04.016Z,99776.77
2022-08-22T05:26:09.290Z,99768.70
2022-08-22T05:27:16.290Z,99768.70
2022-08-22T05:28:26.348Z,99779.36
2022-08-22T05:29:32.916Z,99776.04
2022-08-22T05:30:39.921Z,99787.97
2022-08-22T05:31:49.635Z,99790.31
2022-08-22T05:32:56.630Z,99796.27
2022-08-22T05:34:06.378Z,99796.27
2022-08-22T05:35:13.852Z,99797.85
2022-08-22T05:36:30.524Z,99798.53
2022-08-22T05:37:37.120Z,99798.53
2022-08-22T05:38:52.897Z,99790.70
2022-08-22T05:40:00.221Z,99789.95
2022-08-22T05:41:11.791Z,99789.95
2022-08-22T05:42:24.412Z,99787.37
2022-08-22T05:43:28.708Z,99785.22
2022-08-22T05:44:35.704Z,99797.09
2022-08-22T05:45:42.863Z,99785.87
2022-08-22T05:47:01.875Z,99786.43
2022-08-22T05:48:14.499Z,99783.18
2022-08-22T05:49:40.892Z,99785.94
2022-08-22T05:50:57.045Z,99785.94
2022-08-22T05:52:18.748Z,99790.38
2022-08-22T05:53:39.325Z,99790.38
2022-08-22T05:54:55.099Z,99785.41
2022-08-22T05:56:04.881Z,99790.92
2022-08-22T05:57:17.566Z,99790.92
2022-08-22T05:58:50.199Z,99800.58
2022-08-22T05:59:59.981Z,99800.58
2022-08-22T06:01:23.532Z,99796.44
2022-08-22T06:02:30.578Z,99796.44
2022-08-22T06:03:40.604Z,99796.66
2022-08-22T06:04:50.320Z,99808.70
2022-08-22T06:05:58.721Z,99791.80
2022-08-22T06:07:14.690Z,99794.81
2022-08-22T06:08:24.653Z,99794.81
2022-08-22T06:09:35.778Z,99796.20
2022-08-22T06:10:49.040Z,99794.84
2022-08-22T06:12:03.205Z,99794.84
2022-08-22T06:13:24.648Z,99787.37
2022-08-22T06:14:42.965Z,99796.64
2022-08-22T06:16:09.564Z,99796.64
2022-08-22T06:17:19.511Z,99801.14
2022-08-22T06:18:26.755Z,99797.31
2022-08-22T06:19:33.291Z,99797.31
2022-08-22T06:20:58.433Z,99804.90
2022-08-22T06:22:05.259Z,99802.72
2022-08-22T06:23:12.247Z,99802.72
2022-08-22T06:24:22.240Z,99801.14
2022-08-22T06:25:29.301Z,99799.23
2022-08-22T06:26:37.856Z,99797.88
2022-08-22T06:27:45.758Z,99803.39
2022-08-22T06:28:57.663Z,99803.39
2022-08-22T06:30:04.793Z,99797.34
2022-08-22T06:31:14.510Z,99799.49
2022-08-22T06:32:32.631Z,99791.13
2022-08-22T06:33:32.883Z,99795.53
2022-08-22T06:34:41.543Z,99793.84
2022-08-22T06:35:58.763Z,99793.84
2022-08-22T06:37:08.529Z,99797.05
2022-08-22T06:38:14.258Z,99802.52
2022-08-22T06:39:26.767Z,99802.52
2022-08-22T06:40:31.469Z,99802.48
2022-08-22T06:41:42.755Z,99798.91
2022-08-22T06:42:50.137Z,99798.91
2022-08-22T06:43:56.033Z,99796.16
2022-08-22T06:45:03.044Z,99800.80
2022-08-22T06:46:09.115Z,99786.98
2022-08-22T06:47:24.936Z,99791.95
2022-08-22T06:48:29.283Z,99795.20
2022-08-22T06:49:36.299Z,99795.20
2022-08-22T06:50:44.040Z,99797.33
2022-08-22T06:51:49.637Z,99794.00
2022-08-22T06:53:14.328Z,99794.00
2022-08-22T06:54:21.719Z,99792.35
2022-08-22T06:55:28.838Z,99789.69
2022-08-22T06:56:36.338Z,99790.56
2022-08-22T06:57:52.185Z,99790.56
2022-08-22T06:58:59.193Z,99786.09
2022-08-22T07:00:09.101Z,99781.80
2022-08-22T07:01:16.438Z,99785.50
2022-08-22T07:02:32.106Z,99785.50
2022-08-22T07:03:40.986Z,99785.81
2022-08-22T07:04:49.521Z,99789.98
2022-08-22T07:05:56.241Z,99785.89
2022-08-22T07:07:01.948Z,99786.73
2022-08-22T07:08:13.347Z,99789.52
2022-08-22T07:09:21.866Z,99791.75
2022-08-22T07:10:27.008Z,99780.72
2022-08-22T07:11:36.675Z,99780.72
2022-08-22T07:12:45.262Z,99785.95
2022-08-22T07:13:52.237Z,99785.95
2022-08-22T07:15:01.799Z,99785.95
2022-08-22T07:16:09.328Z,99782.63
2022-08-22T07:17:25.093Z,99784.87
2022-08-22T07:18:30.243Z,99781.91
2022-08-22T07:19:40.013Z,99779.16
2022-08-22T07:20:48.782Z,99779.98
2022-08-22T07:21:53.173Z,99786.59
2022-08-22T07:23:03.132Z,99786.59
2022-08-22T07:24:09.739Z,99782.67
2022-08-22T07:25:16.357Z,99782.67
2022-08-22T07:26:29.789Z,99781.34
2022-08-22T07:27:48.862Z,99785.70
2022-08-22T07:28:58.730Z,99776.56
2022-08-22T07:30:10.038Z,99776.56
2022-08-22T07:31:18.883Z,99772.70
2022-08-22T07:32:42.216Z,99777.12
2022-08-22T07:33:54.934Z,99776.08
2022-08-22T07:35:04.682Z,99776.08
2022-08-22T07:36:25.065Z,99777.21
2022-08-22T07:37:54.771Z,99767.02
2022-08-22T07:39:11.217Z,99767.02
2022-08-22T07:40:34.609Z,99777.25
2022-08-22T07:41:57.767Z,99769.55
2022-08-22T07:43:16.816Z,99769.55
2022-08-22T07:44:25.795Z,99769.55
2022-08-22T07:45:41.161Z,99770.91
2022-08-22T07:46:53.904Z,99773.42
2022-08-22T07:48:25.882Z,99764.31
2022-08-22T07:49:32.036Z,99764.31
2022-08-22T07:50:41.150Z,99777.58
2022-08-22T07:51:59.893Z,99777.58
2022-08-22T07:53:12.186Z,99781.71
2022-08-22T07:54:26.485Z,99780.05
2022-08-22T07:55:29.684Z,99780.58
2022-08-22T07:56:38.780Z,99780.58
2022-08-22T07:57:45.536Z,99773.70
2022-08-22T07:58:54.601Z,99772.58
2022-08-22T08:00:01.467Z,99769.56
2022-08-22T08:01:08.566Z,99768.17
2022-08-22T08:02:15.698Z,99772.02
2022-08-22T08:03:22.183Z,99762.65
2022-08-22T08:04:39.547Z,99772.84
2022-08-22T08:05:43.075Z,99766.22
2022-08-22T08:06:51.320Z,99766.22
2022-08-22T08:08:00.457Z,99769.28
2022-08-22T08:09:05.170Z,99775.91
2022-08-22T08:10:14.246Z,99775.91
2022-08-22T08:11:20.512Z,99777.56
2022-08-22T08:12:36.238Z,99772.59
2022-08-22T08:13:45.948Z,99773.97
2022-08-22T08:14:52.929Z,99769.56
2022-08-22T08:15:57.336Z,99769.56
2022-08-22T08:17:07.056Z,99763.77
2022-08-22T08:18:14.065Z,99763.50
2022-08-22T08:19:20.074Z,99772.33
2022-08-22T08:20:27.203Z,99772.33
2022-08-22T08:21:49.262Z,99771.51
2022-08-22T08:22:54.914Z,99773.47
2022-08-22T08:24:01.428Z,99775.41
2022-08-22T08:25:09.209Z,99775.41
2022-08-22T08:26:25.725Z,99774.86
2022-08-22T08:27:32.693Z,99772.39
2022-08-22T08:28:43.927Z,99772.39
2022-08-22T08:29:56.878Z,99776.80
2022-08-22T08:31:12.703Z,99772.92
2022-08-22T08:32:18.947Z,99770.72
2022-08-22T08:33:26.828Z,99770.72
2022-08-22T08:34:32.025Z,99770.72
2022-08-22T08:35:42.476Z,99768.22
2022-08-22T08:36:52.284Z,99764.64
2022-08-22T08:38:08.586Z,99764.64
2022-08-22T08:39:35.453Z,99767.40
2022-08-22T08:40:54.951Z,99766.28
2022-08-22T08:42:14.341Z,99756.91
2022-08-22T08:43:29.981Z,99759.64
2022-08-22T08:44:42.697Z,99759.64
2022-08-22T08:45:56.382Z,99758.55
2022-08-22T08:47:15.023Z,99762.39
2022-08-22T08:48:47.590Z,99760.19
2022-08-22T08:50:06.852Z,99763.81
2022-08-22T08:51:31.862Z,99759.38
2022-08-22T08:52:52.587Z,99759.38
2022-08-22T08:54:18.576Z,99764.08
2022-08-22T08:55:32.066Z,99763.25
2022-08-22T08:56:45.043Z,99763.25
2022-08-22T08:58:22.232Z,99756.87
2022-08-22T08:59:29.705Z,99764.63
2022-08-22T09:01:12.739Z,99772.92
2022-08-22T09:02:40.651Z,99772.92
2022-08-22T09:04:06.309Z,99762.95
2022-08-22T09:05:31.204Z,99760.23
2022-08-22T09:06:59.332Z,99766.56
2022-08-22T09:08:30.446Z,99766.56
2022-08-22T09:09:40.920Z,99758.55
2022-08-22T09:10:47.991Z,99758.55
2022-08-22T09:12:23.446Z,99760.23
2022-08-22T09:13:52.759Z,99756.09
2022-08-22T09:15:16.405Z,99755.27
2022-08-22T09:16:35.409Z,99754.71
2022-08-22T09:17:42.664Z,99757.73
2022-08-22T09:18:58.346Z,99760.79
2022-08-22T09:20:18.051Z,99768.52
2022-08-22T09:21:31.242Z,99757.73
2022-08-22T09:23:10.834Z,99758.85
2022-08-22T09:24:35.687Z,99772.66
2022-08-22T09:25:51.346Z,99772.66
2022-08-22T09:26:58.589Z,99765.75
2022-08-22T09:28:17.681Z,99760.76
2022-08-22T09:29:54.466Z,99749.16
2022-08-22T09:31:00.122Z,99749.16
2022-08-22T09:32:26.767Z,99752.22
2022-08-22T09:33:51.771Z,99755.80
2022-08-22T09:35:18.655Z,99755.80
2022-08-22T09:36:26.401Z,99755.80
2022-08-22T09:37:39.283Z,99753.04
2022-08-22T09:39:03.045Z,99747.52
2022-08-22T09:41:42.243Z,99744.75
2022-08-22T09:43:03.432Z,99748.33
2022-08-22T09:44:19.100Z,99748.33
2022-08-22T09:45:50.075Z,99742.55
2022-08-22T09:47:13.874Z,99743.63
2022-08-22T09:48:52.904Z,99740.30
2022-08-22T09:50:08.811Z,99740.30
2022-08-22T09:51:32.245Z,99741.98
2022-08-22T09:53:01.052Z,99763.78
2022-08-22T09:54:31.131Z,99763.78
2022-08-22T09:56:00.458Z,99741.98
2022-08-22T09:57:10.375Z,99744.17
2022-08-22T09:58:41.935Z,99748.31
2022-08-22T09:59:48.966Z,99748.58
2022-08-22T10:01:03.241Z,99743.05
2022-08-22T10:02:36.172Z,99738.89
2022-08-22T10:04:05.884Z,99746.91
2022-08-22T10:05:40.872Z,99740.84
2022-08-22T10:06:45.819Z,99740.84
2022-08-22T10:08:12.037Z,99747.73
2022-08-22T10:09:26.436Z,99737.78
2022-08-22T10:10:51.892Z,99737.78
2022-08-22T10:12:03.284Z,99746.38
2022-08-22T10:13:17.272Z,99736.65
2022-08-22T10:14:27.273Z,99756.30
2022-08-22T10:15:39.808Z,99739.70
2022-08-22T10:16:58.636Z,99738.09
2022-08-22T10:18:20.388Z,99738.62
2022-08-22T10:19:34.622Z,99739.46
2022-08-22T10:20:50.281Z,99746.88
2022-08-22T10:22:29.896Z,99741.92
2022-08-22T10:23:32.927Z,99748.56
2022-08-22T10:24:55.987Z,99737.50
2022-08-22T10:26:22.989Z,99747.98
2022-08-22T10:27:39.912Z,99747.98
2022-08-22T10:28:58.436Z,99750.73
2022-08-22T10:30:16.478Z,99750.20
2022-08-22T10:31:33.123Z,99750.20
2022-08-22T10:33:03.821Z,99749.94
2022-08-22T10:34:15.271Z,99738.83
2022-08-22T10:35:40.069Z,99744.63
2022-08-22T10:36:57.786Z,99745.72
2022-08-22T10:38:25.085Z,99745.72
2022-08-22T10:39:32.584Z,99742.37
2022-08-22T10:40:45.308Z,99747.88
2022-08-22T10:42:10.228Z,99750.62
2022-08-22T10:43:17.234Z,99750.62
2022-08-22T10:45:54.964Z,99751.20
2022-08-22T10:47:13.983Z,99744.84
2022-08-22T10:48:36.073Z,99744.84
2022-08-22T10:49:52.134Z,99741.77
2022-08-22T10:51:08.587Z,99741.73
2022-08-22T10:52:16.673Z,99741.73
2022-08-22T10:53:39.691Z,99752.23
2022-08-22T10:54:49.224Z,99752.23
2022-08-22T10:55:56.154Z,99760.59
2022-08-22T10:57:24.562Z,99765.84
2022-08-22T10:58:31.583Z,99747.30
2022-08-22T10:59:41.506Z,99747.30
2022-08-22T11:01:00.639Z,99755.94
2022-08-22T11:02:28.312Z,99737.94
2022-08-22T11:03:42.654Z,99753.41
2022-08-22T11:05:15.068Z,99744.82
2022-08-22T11:06:29.436Z,99744.82
2022-08-22T11:07:51.594Z,99750.64
2022-08-22T11:09:16.605Z,99741.75
2022-08-22T11:10:34.893Z,99741.75
2022-08-22T11:11:44.334Z,99741.16
2022-08-22T11:12:52.879Z,99758.34
2022-08-22T11:14:11.786Z,99762.23
2022-08-22T11:15:35.358Z,99762.23
2022-08-22T11:16:58.497Z,99756.45
2022-08-22T11:18:30.516Z,99756.45
2022-08-22T11:20:03.330Z,99752.56
2022-08-22T11:21:12.844Z,99754.20
2022-08-22T11:22:41.995Z,99750.59
2022-08-22T11:24:00.397Z,99743.92
2022-08-22T11:25:38.930Z,99743.92
2022-08-22T11:26:47.813Z,99745.05
2022-08-22T11:28:02.884Z,99758.30
2022-08-22T11:29:30.297Z,99758.30
2022-08-22T11:30:44.727Z,99744.50
2022-08-22T11:32:05.785Z,99751.13
2022-08-22T11:33:09.502Z,99755.27
2022-08-22T11:34:45.269Z,99749.73
2022-08-22T11:36:04.489Z,99752.23
2022-08-22T11:37:18.759Z,99752.23
2022-08-22T11:38:48.364Z,99752.78
2022-08-22T11:40:21.935Z,99752.78
2022-08-22T11:41:43.439Z,99744.48
2022-08-22T11:42:59.483Z,99736.98
2022-08-22T11:44:16.975Z,99756.61
2022-08-22T11:45:24.406Z,99757.19
2022-08-22T11:46:34.125Z,99757.19
2022-08-22T11:47:52.331Z,99752.51
2022-08-22T11:49:12.611Z,99752.51
2022-08-22T11:50:26.034Z,99746.10
2022-08-22T11:51:34.380Z,99753.91
2022-08-22T11:52:52.647Z,99751.95
2022-08-22T11:54:05.034Z,99738.35
2022-08-22T11:55:14.701Z,99744.41
2022-08-22T11:56:33.412Z,99744.41
2022-08-22T11:57:44.863Z,99749.08
2022-08-22T11:59:07.043Z,99751.30
2022-08-22T12:00:35.200Z,99740.76
2022-08-22T12:01:58.843Z,99748.23
2022-08-22T12:03:23.891Z,99748.23
2022-08-22T12:04:44.414Z,99743.28
2022-08-22T12:06:03.186Z,99755.44
2022-08-22T12:07:10.198Z,99760.45
2022-08-22T12:08:21.376Z,99749.69
2022-08-22T12:09:38.027Z,99749.69
2022-08-22T12:11:00.295Z,99761.59
2022-08-22T12:12:21.094Z,99743.34
2022-08-22T12:13:52.256Z,99762.72
2022-08-22T12:15:24.977Z,99749.45
2022-08-22T12:16:41.117Z,99753.91
2022-08-22T12:18:24.307Z,99753.91
2022-08-22T12:20:14.390Z,99755.53
2022-08-22T12:21:15.280Z,99751.41
2022-08-22T12:22:55.456Z,99750.28
2022-08-22T12:24:19.435Z,99750.28
2022-08-22T12:25:47.093Z,99777.66
2022-08-22T12:27:12.461Z,99777.66
2022-08-22T12:28:31.446Z,99762.80
2022-08-22T12:29:44.893Z,99753.91
2022-08-22T12:30:51.739Z,99758.63
2022-08-22T12:32:10.379Z,99758.63
2022-08-22T12:33:33.345Z,99760.27
2022-08-22T12:34:56.867Z,99761.11
2022-08-22T12:36:26.803Z,99761.11
2022-08-22T12:37:35.685Z,99746.17
2022-08-22T12:39:10.483Z,99743.11
2022-08-22T12:40:37.274Z,99758.09
2022-08-22T12:42:04.853Z,99750.84
2022-08-22T12:43:26.577Z,99750.84
2022-08-22T12:44:36.588Z,99734.58
2022-08-22T12:46:07.501Z,99756.38
2022-08-22T12:47:24.730Z,99748.63
2022-08-22T12:49:07.701Z,99756.70
2022-08-22T12:50:21.534Z,99756.70
2022-08-22T12:51:34.077Z,99743.41
2022-08-22T12:53:09.407Z,99751.72
2022-08-22T12:54:44.239Z,99751.72
2022-08-22T12:56:23.761Z,99757.05
2022-08-22T12:57:32.305Z,99740.72
2022-08-22T12:58:58.238Z,99741.83
2022-08-22T13:00:13.854Z,99747.36
2022-08-22T13:01:18.616Z,99760.91
2022-08-22T13:02:30.472Z,99758.94
2022-08-22T13:03:39.414Z,99758.94
2022-08-22T13:04:49.216Z,99745.39
2022-08-22T13:05:56.770Z,99745.39
2022-08-22T13:07:07.013Z,99756.17
2022-08-22T13:08:15.854Z,99756.17
2022-08-22T13:09:32.825Z,99768.90
2022-08-22T13:10:54.368Z,99760.62
2022-08-22T13:12:19.915Z,99751.77
2022-08-22T13:13:31.616Z,99756.17
2022-08-22T13:14:38.363Z,99752.31
2022-08-22T13:15:57.293Z,99762.80
2022-08-22T13:18:30.538Z,99756.45
2022-08-22T13:19:25.672Z,99761.45
2022-08-22T13:20:35.375Z,99753.98
2022-08-22T13:21:43.342Z,99755.66
2022-08-22T13:22:50.643Z,99755.66
2022-08-22T13:23:58.399Z,99760.33
2022-08-22T13:25:28.826Z,99753.70
2022-08-22T13:26:37.689Z,99762.02
2022-08-22T13:27:50.747Z,99769.19
2022-08-22T13:29:25.009Z,99759.52
2022-08-22T13:31:46.487Z,99773.92
2022-08-22T13:32:55.210Z,99767.83
2022-08-22T13:34:02.102Z,99767.83
2022-08-22T13:35:08.591Z,99770.32
2022-08-22T13:36:20.375Z,99768.14
2022-08-22T13:37:27.609Z,99781.13
2022-08-22T13:38:52.471Z,99781.13
2022-08-22T13:40:01.963Z,99770.65
2022-08-22T13:41:08.488Z,99770.65
2022-08-22T13:42:29.828Z,99770.66
2022-08-22T13:43:33.951Z,99768.47
2022-08-22T13:44:43.827Z,99773.42
2022-08-22T13:45:56.958Z,99765.40
2022-08-22T13:47:14.409Z,99781.15
2022-08-22T13:48:13.913Z,99768.45
2022-08-22T13:49:22.937Z,99768.45
2022-08-22T13:50:53.630Z,99776.73
2022-08-22T13:51:47.656Z,99767.89
2022-08-22T13:52:57.325Z,99768.16
2022-08-22T13:54:13.224Z,99775.64
2022-08-22T13:55:23.023Z,99771.79
2022-08-22T13:56:31.987Z,99771.79
2022-08-22T13:57:52.145Z,99782.84
2022-08-22T13:58:59.270Z,99785.34
2022-08-22T14:00:10.767Z,99783.96
2022-08-22T14:01:18.141Z,99795.27
2022-08-22T14:02:34.336Z,99780.91
2022-08-22T14:04:53.446Z,99790.30
2022-08-22T14:05:22.352Z,99785.05
2022-08-22T14:06:32.517Z,99790.30
2022-08-22T14:07:09.286Z,99790.30
2022-08-22T14:08:28.721Z,99805.49
2022-08-22T14:09:56.723Z,99804.67
2022-08-22T14:11:06.694Z,99793.63
2022-08-22T14:12:12.801Z,99798.59
2022-08-22T14:13:37.889Z,99798.59
2022-08-22T14:14:45.884Z,99801.08
2022-08-22T14:15:51.882Z,99799.97
2022-08-22T14:16:59.723Z,99791.69
2022-08-22T14:18:18.494Z,99791.69
2022-08-22T14:19:30.283Z,99795.83
2022-08-22T14:20:39.516Z,99805.22
2022-08-22T14:21:47.341Z,99805.22
2022-08-22T14:22:58.914Z,99800.52
2022-08-22T14:24:05.937Z,99792.53
2022-08-22T14:25:21.773Z,99788.39
2022-08-22T14:26:33.245Z,99792.80
2022-08-22T14:27:41.321Z,99789.47
2022-08-22T14:28:48.853Z,99789.47
2022-08-22T14:29:58.547Z,99788.95
2022-08-22T14:31:05.201Z,99789.20
2022-08-22T14:32:28.545Z,99789.20
2022-08-22T14:33:46.051Z,99778.95
2022-08-22T14:34:54.341Z,99778.95
2022-08-22T14:36:02.277Z,99788.34
2022-08-22T14:37:11.750Z,99788.91
2022-08-22T14:38:33.710Z,99788.91
2022-08-22T14:39:43.720Z,99802.19
2022-08-22T14:40:54.409Z,99802.19
2022-08-22T14:42:11.980Z,99786.15
2022-08-22T14:43:33.026Z,99806.54
2022-08-22T14:44:54.793Z,99806.54
2022-08-22T14:46:10.342Z,99787.52
2022-08-22T14:47:32.235Z,99792.19
2022-08-22T14:48:42.442Z,99793.59
2022-08-22T14:49:51.152Z,99788.60
2022-08-22T14:51:04.085Z,99788.60
2022-08-22T14:52:19.707Z,99794.68
2022-08-22T14:53:25.352Z,99800.49
2022-08-22T14:54:31.241Z,99792.21
2022-08-22T14:55:38.423Z,99792.21
2022-08-22T14:56:44.905Z,99795.50
2022-08-22T14:57:58.112Z,99795.50
2022-08-22T14:59:05.201Z,99796.05